Time;durP1;ratioP1;P1;durP2;ratioP2;P2;SDS_P1;SDS_P2;PMS_P1;PMS_P2;Temp;Humidity;BMP_temperature;BMP_pressure;BME280_temperature;BME280_humidity;BME280_pressure;Samples;Min_cycle;Max_cycle;Signal;HPM_P1;HPM_P2
2020/12/12 00:00:49;;;;;;;;;;;;;;;-1.83;73.78;100590.67;1706034;83;20373;-92
2020/12/12 00:03:16;;;;;;;;;;;;;;;-1.77;73.56;100582.42;1678289;84;20149;-90
2020/12/12 00:05:45;;;;;;;;;;;;;;;-1.78;73.62;100574.19;1710910;82;20193;-92
2020/12/12 00:08:14;;;;;;;;;;;;;;;-1.75;73.55;100570.56;1706792;84;20185;-88
2020/12/12 00:10:42;;;;;;;;;;;;;;;-1.76;73.71;100574.09;1699047;83;20818;-91
2020/12/12 00:13:09;;;;;;;;;;;;;;;-1.75;73.70;100562.72;1709944;84;20335;-89
2020/12/12 00:15:36;;;;;;;;;;;;;;;-1.78;73.82;100562.44;1708882;84;20483;-89
2020/12/12 00:18:03;;;;;;;;;;;;;;;-1.77;73.88;100565.42;1705331;84;20157;-90
2020/12/12 00:20:33;;;;;;;;;;;;;;;-1.73;73.84;100559.97;1707792;83;20198;-92
2020/12/12 00:23:00;;;;;;;;;;;;;;;-1.76;73.92;100572.31;1707260;83;20193;-90
2020/12/12 00:25:28;;;;;;;;;;;;;;;-1.76;74.12;100567.09;1693335;84;20294;-88
2020/12/12 00:27:55;;;;;;;;;;;;;;;-1.68;73.96;100563.13;1687935;84;20233;-88
2020/12/12 00:30:24;;;;;;;;;;;;;;;-1.71;74.11;100571.16;1687351;84;20248;-91
2020/12/12 00:32:51;;;;;;;;;;;;;;;-1.66;73.96;100555.53;1668298;85;20327;-90
2020/12/12 00:35:18;;;;;;;;;;;;;;;-2.45;74.04;100437.22;1662040;84;20216;-88
2020/12/12 00:37:44;;;;;;;;;;;;;;;-1.69;73.99;100550.53;1674545;85;20196;-89
2020/12/12 00:40:11;;;;;;;;;;;;;;;-1.72;74.21;100553.34;1707430;84;20281;-87
2020/12/12 00:42:40;;;;;;;;;;;;;;;-1.66;74.06;100546.86;1704564;84;20261;-88
2020/12/12 00:45:06;;;;;;;;;;;;;;;-1.71;74.21;100555.48;1714774;83;20201;-89
2020/12/12 00:47:37;;;;;;;;;;;;;;;-1.64;74.13;100548.90;1706625;84;20261;-87
2020/12/12 00:50:06;;;;;;;;;;;;;;;-1.65;74.24;100540.23;1708145;83;20223;-90
2020/12/12 00:52:33;;;;;;;;;;;;;;;-1.64;74.27;100541.91;1706997;81;20205;-87
2020/12/12 00:55:02;;;;;;;;;;;;;;;-1.61;74.20;100536.94;1679089;85;20125;-88
2020/12/12 00:57:29;;;;;;;;;;;;;;;-1.61;74.25;100544.30;1680902;84;20200;-88
2020/12/12 00:59:57;;;;;;;;;;;;;;;-1.59;74.34;100544.20;1709250;84;20230;-87
2020/12/12 01:02:26;;;;;;;;;;;;;;;-1.59;74.32;100532.44;1679482;84;20173;-88
2020/12/12 01:04:54;;;;;;;;;;;;;;;-1.49;74.08;100529.55;1705970;84;20193;-88
2020/12/12 01:07:22;;;;;;;;;;;;;;;-1.53;74.28;100529.39;1674326;85;20188;-86
2020/12/12 01:09:49;;;;;;;;;;;;;;;-1.50;74.27;100523.97;1675390;85;20192;-87
2020/12/12 01:12:17;;;;;;;;;;;;;;;-1.50;74.30;100531.81;1711047;82;20190;-87
2020/12/12 01:14:45;;;;;;;;;;;;;;;-1.50;74.27;100527.06;1672446;86;20201;-88
2020/12/12 01:17:12;;;;;;;;;;;;;;;-1.48;74.24;100526.48;1735304;82;20203;-87
2020/12/12 01:19:39;;;;;;;;;;;;;;;-1.44;74.10;100527.94;1711048;84;20134;-85
2020/12/12 01:22:06;;;;;;;;;;;;;;;-1.47;74.05;100534.22;1741639;82;20425;-87
2020/12/12 01:24:33;;;;;;;;;;;;;;;-1.41;74.00;100527.25;1740318;82;20231;-88
2020/12/12 01:27:00;;;;;;;;;;;;;;;-1.44;74.01;100536.61;1738943;82;20188;-89
2020/12/12 01:29:28;;;;;;;;;;;;;;;-1.39;73.95;100548.07;1740787;81;20116;-91
2020/12/12 01:31:55;;;;;;;;;;;;;;;-1.39;73.81;100524.54;1744321;79;20108;-89
2020/12/12 01:34:21;;;;;;;;;;;;;;;-1.39;73.85;100533.21;1741698;82;20175;-89
2020/12/12 01:36:49;;;;;;;;;;;;;;;-1.39;73.86;100530.59;1698321;82;20146;-90
2020/12/12 01:39:20;;;;;;;;;;;;;;;-1.34;73.76;100523.73;1669194;84;20133;-90
2020/12/12 01:41:49;;;;;;;;;;;;;;;-1.35;73.81;100519.94;1672123;84;20157;-91
2020/12/12 01:44:16;;;;;;;;;;;;;;;-1.29;73.64;100526.86;1649442;86;20462;-90
2020/12/12 01:46:43;;;;;;;;;;;;;;;-1.35;73.58;100519.45;1672176;84;20493;-91
2020/12/12 01:49:10;;;;;;;;;;;;;;;-1.29;73.58;100526.86;1681903;84;20195;-86
2020/12/12 01:51:37;;;;;;;;;;;;;;;-1.32;73.47;100547.98;1685829;84;20285;-88
2020/12/12 01:54:03;;;;;;;;;;;;;;;-1.31;73.46;100531.84;1674737;84;20279;-86
2020/12/12 01:56:30;;;;;;;;;;;;;;;-1.31;73.41;100517.47;1666298;84;20281;-84
2020/12/12 01:58:59;;;;;;;;;;;;;;;-1.34;73.48;100516.36;1668859;84;20224;-86
2020/12/12 02:01:27;;;;;;;;;;;;;;;-1.30;73.48;100534.36;1665111;85;20296;-84
2020/12/12 02:03:55;;;;;;;;;;;;;;;-1.38;73.45;100526.19;1650710;85;20164;-91
2020/12/12 02:06:24;;;;;;;;;;;;;;;-1.34;73.25;100528.13;1667994;85;20136;-91
2020/12/12 02:08:52;;;;;;;;;;;;;;;-1.40;73.43;100531.52;1681684;84;20258;-89
2020/12/12 02:11:20;;;;;;;;;;;;;;;-1.35;73.32;100526.47;1680380;84;20188;-88
2020/12/12 02:13:48;;;;;;;;;;;;;;;-1.39;73.42;100522.75;1702601;84;20221;-89
2020/12/12 02:16:19;;;;;;;;;;;;;;;-1.37;73.29;100528.70;1706550;83;21338;-88
2020/12/12 02:18:46;;;;;;;;;;;;;;;-1.37;73.36;100519.55;1706632;83;20209;-86
2020/12/12 02:21:13;;;;;;;;;;;;;;;-1.37;73.13;100530.02;1699000;83;20543;-88
2020/12/12 02:23:40;;;;;;;;;;;;;;;-1.37;72.90;100518.25;1702372;84;20230;-84
2020/12/12 02:26:08;;;;;;;;;;;;;;;-1.45;72.92;100544.10;1702117;84;20208;-86
2020/12/12 02:28:49;;;;;;;;;;;;;;;-1.45;72.82;100527.11;1701082;84;20221;-86
2020/12/12 02:31:14;;;;;;;;;;;;;;;-1.52;73.08;100519.32;1701837;84;20214;-87
2020/12/12 02:33:41;;;;;;;;;;;;;;;-1.52;72.96;100528.47;1701298;84;20189;-86
2020/12/12 02:36:10;;;;;;;;;;;;;;;-1.57;72.96;100513.56;1686595;83;20215;-86
2020/12/12 02:38:37;;;;;;;;;;;;;;;-1.56;73.08;100511.33;1671999;84;20191;-86
2020/12/12 02:41:07;;;;;;;;;;;;;;;-1.59;73.24;100504.99;1670965;85;20269;-85
2020/12/12 02:43:34;;;;;;;;;;;;;;;-1.58;73.06;100535.44;1662382;85;20196;-84
2020/12/12 02:46:00;;;;;;;;;;;;;;;-1.60;73.04;100526.83;1684310;84;20284;-82
2020/12/12 02:48:27;;;;;;;;;;;;;;;-1.65;72.94;100532.87;1682942;84;20253;-82
2020/12/12 02:50:54;;;;;;;;;;;;;;;-1.71;72.87;100512.36;1681232;84;20220;-83
2020/12/12 02:53:20;;;;;;;;;;;;;;;-1.75;72.92;100528.75;1680106;84;20188;-84
2020/12/12 02:55:47;;;;;;;;;;;;;;;-1.78;72.97;100536.30;1680078;84;20209;-82
2020/12/12 02:58:14;;;;;;;;;;;;;;;-1.89;73.64;100515.28;1681402;84;20518;-83
2020/12/12 03:00:40;;;;;;;;;;;;;;;-1.88;73.60;100512.23;1679065;84;20292;-82
2020/12/12 03:03:07;;;;;;;;;;;;;;;-1.92;73.78;100520.73;1650680;85;20182;-82
2020/12/12 03:05:34;;;;;;;;;;;;;;;-2.00;73.79;100507.34;1685417;85;20277;-84
2020/12/12 03:08:00;;;;;;;;;;;;;;;-1.93;73.62;100520.84;1702675;83;20192;-84
2020/12/12 03:10:29;;;;;;;;;;;;;;;-1.98;73.74;100496.31;1685840;82;20453;-83
2020/12/12 03:12:56;;;;;;;;;;;;;;;-1.94;73.54;100499.55;1683237;84;20142;-84
2020/12/12 03:15:23;;;;;;;;;;;;;;;-1.91;73.51;100494.13;1699422;84;20232;-84
2020/12/12 03:17:50;;;;;;;;;;;;;;;-1.97;73.38;100514.98;1683458;84;20216;-85
2020/12/12 03:20:17;;;;;;;;;;;;;;;-1.97;73.70;100511.06;1682374;84;20152;-83
2020/12/12 03:22:43;;;;;;;;;;;;;;;-1.94;73.34;100530.91;1684462;84;20128;-83
2020/12/12 03:25:10;;;;;;;;;;;;;;;-2.02;73.43;100530.11;1698548;84;20136;-88
2020/12/12 03:27:39;;;;;;;;;;;;;;;-1.97;73.46;100523.64;1683208;84;20306;-85
2020/12/12 03:30:05;;;;;;;;;;;;;;;-2.00;73.41;100519.95;1684284;84;20187;-84
2020/12/12 03:32:32;;;;;;;;;;;;;;;-1.91;73.24;100525.48;1686363;84;20266;-83
2020/12/12 03:34:59;;;;;;;;;;;;;;;-1.98;72.96;100513.30;1678274;84;20580;-82
2020/12/12 03:37:31;;;;;;;;;;;;;;;-1.95;72.85;100528.77;1683210;84;20243;-83
2020/12/12 03:39:58;;;;;;;;;;;;;;;-1.98;73.09;100526.36;1685604;84;20208;-85
2020/12/12 03:42:24;;;;;;;;;;;;;;;-1.96;73.12;100516.63;1686185;84;20187;-86
2020/12/12 03:44:51;;;;;;;;;;;;;;;-1.98;73.17;100525.05;1684826;84;20243;-85
2020/12/12 03:47:19;;;;;;;;;;;;;;;-1.97;73.08;100513.67;1682637;84;20497;-86
2020/12/12 03:49:46;;;;;;;;;;;;;;;-1.97;73.01;100516.28;1683338;84;20180;-84
2020/12/12 03:52:14;;;;;;;;;;;;;;;-2.00;73.20;100517.78;1679934;84;20215;-84
2020/12/12 03:54:42;;;;;;;;;;;;;;;-1.98;73.23;100517.21;1682166;84;20211;-89
2020/12/12 03:57:12;;;;;;;;;;;;;;;-1.99;73.18;100518.17;1687033;84;20402;-88
2020/12/12 03:59:39;;;;;;;;;;;;;;;-2.01;73.22;100526.10;1675391;84;20175;-89
2020/12/12 04:02:06;;;;;;;;;;;;;;;-1.96;73.11;100519.25;1657249;85;20191;-87
2020/12/12 04:04:34;;;;;;;;;;;;;;;-2.03;73.17;100548.05;1675121;84;20563;-89
2020/12/12 04:07:01;;;;;;;;;;;;;;;-2.03;73.04;100525.84;1669623;81;20172;-87
2020/12/12 04:09:40;;;;;;;;;;;;;;;-2.07;73.22;100517.83;1679969;84;20284;-87
2020/12/12 04:12:30;;;;;;;;;;;;;;;-2.11;73.36;100518.97;1677510;84;20174;-89
2020/12/12 04:15:00;;;;;;;;;;;;;;;-2.15;73.21;100514.42;1669311;84;20279;-87
2020/12/12 04:17:26;;;;;;;;;;;;;;;-2.18;73.37;100519.39;1672358;84;20160;-86
2020/12/12 04:19:54;;;;;;;;;;;;;;;-2.23;73.29;100520.16;1709382;83;20277;-86
2020/12/12 04:22:24;;;;;;;;;;;;;;;-2.24;73.29;100525.03;1697401;83;20199;-84
2020/12/12 04:24:55;;;;;;;;;;;;;;;-2.25;73.41;100510.28;1669996;85;20211;-87
2020/12/12 04:27:21;;;;;;;;;;;;;;;-2.29;73.54;100507.98;1663948;85;20208;-88
2020/12/12 04:29:48;;;;;;;;;;;;;;;-2.26;73.53;100512.98;1668047;85;20207;-87
2020/12/12 04:32:15;;;;;;;;;;;;;;;-2.27;73.53;100517.38;1672695;84;20192;-90
2020/12/12 04:34:43;;;;;;;;;;;;;;;-2.28;73.45;100508.34;1672219;85;20261;-88
2020/12/12 04:37:11;;;;;;;;;;;;;;;-2.30;73.46;100524.11;1684591;83;20190;-90
2020/12/12 04:39:37;;;;;;;;;;;;;;;-2.40;73.17;100493.02;1689135;84;20198;-88
2020/12/12 04:42:04;;;;;;;;;;;;;;;-2.35;73.28;100506.14;1691499;85;20294;-89
2020/12/12 04:44:36;;;;;;;;;;;;;;;-2.32;73.38;100503.79;1695355;84;20197;-90
2020/12/12 04:47:06;;;;;;;;;;;;;;;-2.33;73.20;100507.35;1691274;85;20197;-92
2020/12/12 04:49:37;;;;;;;;;;;;;;;-2.30;72.59;100505.83;1694063;85;20185;-91
2020/12/12 04:52:06;;;;;;;;;;;;;;;-2.36;72.06;100546.70;1691769;84;20222;-92
2020/12/12 04:54:35;;;;;;;;;;;;;;;-2.38;71.67;100512.03;1688448;85;20163;-91
2020/12/12 04:57:05;;;;;;;;;;;;;;;-2.41;71.86;100508.30;1692154;84;20233;-89
2020/12/12 04:59:34;;;;;;;;;;;;;;;-2.47;71.91;100533.04;1691921;85;20178;-89
2020/12/12 05:02:02;;;;;;;;;;;;;;;-2.46;71.14;100508.63;1687406;85;20206;-87
2020/12/12 05:04:30;;;;;;;;;;;;;;;-2.58;70.42;100509.41;1690666;85;20186;-87
2020/12/12 05:06:57;;;;;;;;;;;;;;;-2.64;70.47;100512.42;1690463;83;20302;-88
2020/12/12 05:09:26;;;;;;;;;;;;;;;-2.99;70.51;100458.98;1690785;85;20531;-86
2020/12/12 05:11:52;;;;;;;;;;;;;;;-2.80;70.75;100496.93;1691412;84;20206;-89
2020/12/12 05:14:21;;;;;;;;;;;;;;;-2.72;70.74;100510.31;1693601;83;20175;-87
2020/12/12 05:16:48;;;;;;;;;;;;;;;-2.79;70.90;100498.59;1669905;82;20236;-88
2020/12/12 05:19:18;;;;;;;;;;;;;;;-2.71;70.83;100476.77;1694177;81;20185;-87
2020/12/12 05:21:48;;;;;;;;;;;;;;;-2.72;71.06;100488.61;1666509;85;20208;-87
2020/12/12 05:24:15;;;;;;;;;;;;;;;-2.64;70.89;100495.46;1697705;83;20198;-87
2020/12/12 05:26:43;;;;;;;;;;;;;;;-2.70;71.03;100495.39;1667505;85;20226;-88
2020/12/12 05:29:13;;;;;;;;;;;;;;;-2.69;70.89;100486.64;1694814;85;20186;-88
2020/12/12 05:31:40;;;;;;;;;;;;;;;-2.73;71.31;100493.00;1687432;85;20255;-86
2020/12/12 05:34:14;;;;;;;;;;;;;;;-2.74;71.36;100496.53;1687756;85;20164;-86
2020/12/12 05:36:42;;;;;;;;;;;;;;;-2.75;71.32;100490.92;1703635;82;20159;-87
2020/12/12 05:39:11;;;;;;;;;;;;;;;-2.77;71.31;100482.37;1718480;82;20186;-88
2020/12/12 05:41:39;;;;;;;;;;;;;;;-2.75;71.22;100507.89;1728330;82;20192;-86
2020/12/12 05:44:06;;;;;;;;;;;;;;;-2.75;71.13;100501.36;1710656;82;20485;-87
2020/12/12 05:46:33;;;;;;;;;;;;;;;-2.80;71.11;100493.84;1703332;81;20230;-86
2020/12/12 05:49:01;;;;;;;;;;;;;;;-2.78;71.12;100493.75;1697381;83;20160;-85
2020/12/12 05:51:28;;;;;;;;;;;;;;;-2.85;71.36;100493.77;1696723;83;20163;-87
2020/12/12 05:53:55;;;;;;;;;;;;;;;-2.82;70.96;100497.02;1675130;83;20208;-85
2020/12/12 05:56:26;;;;;;;;;;;;;;;-2.89;71.03;100498.82;1692432;83;20223;-85
2020/12/12 05:58:54;;;;;;;;;;;;;;;-2.84;70.82;100496.77;1693769;84;20196;-86
2020/12/12 06:01:23;;;;;;;;;;;;;;;-2.87;70.72;100524.34;1716107;82;20286;-86
2020/12/12 06:04:01;;;;;;;;;;;;;;;-2.84;70.63;100486.33;1700603;83;20213;-87
2020/12/12 06:06:28;;;;;;;;;;;;;;;-3.00;70.44;100512.06;1699479;83;20191;-85
2020/12/12 06:09:06;;;;;;;;;;;;;;;-3.00;70.30;100499.02;1701174;83;20198;-89
2020/12/12 06:11:33;;;;;;;;;;;;;;;-2.99;70.04;100505.09;1700080;83;20266;-88
2020/12/12 06:14:05;;;;;;;;;;;;;;;-3.08;70.42;100476.52;1651302;86;20211;-88
2020/12/12 06:16:35;;;;;;;;;;;;;;;-3.06;70.62;100499.89;1688205;83;20195;-88
2020/12/12 06:19:08;;;;;;;;;;;;;;;-3.00;70.63;100482.55;1700890;83;20506;-88
2020/12/12 06:21:36;;;;;;;;;;;;;;;-3.00;70.82;100479.45;1701378;83;20201;-87
2020/12/12 06:24:06;;;;;;;;;;;;;;;-2.97;70.66;100487.09;1702608;83;20665;-89
2020/12/12 06:26:50;;;;;;;;;;;;;;;-2.94;70.77;100487.36;1700246;83;20335;-87
2020/12/12 06:29:17;;;;;;;;;;;;;;;-2.97;70.52;100489.70;1697846;84;20304;-88
2020/12/12 06:31:44;;;;;;;;;;;;;;;-2.94;70.51;100501.27;1681504;84;20222;-89
2020/12/12 06:34:19;;;;;;;;;;;;;;;-2.96;70.65;100496.61;1699480;83;20190;-89
2020/12/12 06:37:38;;;;;;;;;;;;;;;-2.93;70.43;100485.14;1683368;84;20224;-92
2020/12/12 06:40:27;;;;;;;;;;;;;;;;;;;;;
2020/12/12 06:43:30;;;;;;;;;;;;;;;-3.01;71.00;100485.63;1680359;82;20158;-92
2020/12/12 06:46:51;;;;;;;;;;;;;;;-2.97;70.48;100492.31;1679654;84;20197;-91
2020/12/12 06:49:29;;;;;;;;;;;;;;;-2.97;70.63;100475.84;1704755;83;20200;-94
2020/12/12 06:51:57;;;;;;;;;;;;;;;-2.93;70.55;100469.48;1671003;84;20217;-91
2020/12/12 06:54:24;;;;;;;;;;;;;;;-2.86;70.77;100462.08;1704669;81;20166;-88
2020/12/12 06:56:51;;;;;;;;;;;;;;;-2.87;70.94;100468.25;1700570;80;20162;-86
2020/12/12 06:59:32;;;;;;;;;;;;;;;-2.80;71.02;100466.45;1702149;83;20157;-87
2020/12/12 07:02:10;;;;;;;;;;;;;;;-2.79;71.01;100465.98;1696716;84;20240;-89
2020/12/12 07:04:39;;;;;;;;;;;;;;;-2.73;70.74;100474.73;1673487;83;20454;-89
2020/12/12 07:07:11;;;;;;;;;;;;;;;-2.83;70.72;100465.81;1585799;89;20216;-91
2020/12/12 07:10:15;;;;;;;;;;;;;;;-2.84;71.01;100465.45;1657772;84;20246;-85
2020/12/12 07:12:42;;;;;;;;;;;;;;;-2.79;70.93;100465.98;1702595;84;20225;-83
2020/12/12 07:15:10;;;;;;;;;;;;;;;-2.76;70.98;100460.57;1697057;83;20521;-84
2020/12/12 07:17:38;;;;;;;;;;;;;;;-2.72;71.01;100463.34;1704249;84;20122;-85
2020/12/12 07:20:05;;;;;;;;;;;;;;;-2.65;70.64;100456.80;1671197;84;20229;-87
2020/12/12 07:22:34;;;;;;;;;;;;;;;-2.66;70.86;100456.89;1700590;84;20228;-84
2020/12/12 07:25:04;;;;;;;;;;;;;;;-2.60;70.48;100457.78;1701504;84;20229;-86
2020/12/12 07:27:29;;;;;;;;;;;;;;;-2.64;70.58;100460.23;1703396;84;20231;-85
2020/12/12 07:29:56;;;;;;;;;;;;;;;-2.59;70.55;100452.47;1703374;84;20190;-85
2020/12/12 07:32:23;;;;;;;;;;;;;;;-2.56;70.57;100443.62;1682540;83;20213;-86
2020/12/12 07:34:59;;;;;;;;;;;;;;;-2.54;70.44;100449.58;1701290;84;20201;-84
2020/12/12 07:37:26;;;;;;;;;;;;;;;-2.51;70.57;100449.34;1671065;83;20196;-85
2020/12/12 07:39:53;;;;;;;;;;;;;;;-2.50;70.49;100452.81;1670321;85;20216;-87
2020/12/12 07:42:22;;;;;;;;;;;;;;;-2.44;70.39;100441.96;1671460;84;20894;-85
2020/12/12 07:45:08;;;;;;;;;;;;;;;-2.45;70.57;100453.33;1673032;84;20214;-88
2020/12/12 07:47:22;;;;;;;;;;;;;;;-2.43;70.35;100443.62;1667417;86;20320;-84
2020/12/12 07:49:50;;;;;;;;;;;;;;;-2.45;70.38;100446.36;1674200;85;20491;-86
2020/12/12 07:52:17;;;;;;;;;;;;;;;-2.50;70.37;100438.46;1646797;86;20304;-86
2020/12/12 07:54:58;;;;;;;;;;;;;;;-2.49;70.63;100457.08;1624275;87;20462;-89
2020/12/12 07:57:21;;;;;;;;;;;;;;;-2.50;70.52;100443.20;1672455;86;20190;-88
2020/12/12 07:59:48;;;;;;;;;;;;;;;-2.52;70.66;100441.17;1644138;87;20201;-89
2020/12/12 08:02:17;;;;;;;;;;;;;;;-2.51;70.97;100445.44;1642158;87;20326;-92
2020/12/12 08:04:44;;;;;;;;;;;;;;;-2.46;70.64;100447.28;1623559;87;20643;-87
2020/12/12 08:07:13;;;;;;;;;;;;;;;-2.48;70.92;100448.33;1655548;85;20213;-92
2020/12/12 08:09:51;;;;;;;;;;;;;;;-2.44;70.79;100434.95;1667505;85;20188;-89
2020/12/12 08:12:32;;;;;;;;;;;;;;;-2.44;71.04;100448.01;1662795;85;20180;-88
2020/12/12 08:15:18;;;;;;;;;;;;;;;-2.41;70.87;100445.66;1667763;82;20163;-87
2020/12/12 08:17:45;;;;;;;;;;;;;;;-2.43;70.64;100437.95;1665924;83;20229;-89
2020/12/12 08:20:17;;;;;;;;;;;;;;;-2.43;70.99;100445.78;1668369;85;20236;-90
2020/12/12 08:22:45;;;;;;;;;;;;;;;-2.39;71.03;100438.11;1668383;85;20227;-90
2020/12/12 08:25:12;;;;;;;;;;;;;;;-2.36;71.04;100443.58;1665907;85;20277;-88
2020/12/12 08:27:47;;;;;;;;;;;;;;;-3.03;71.00;100330.16;1669669;85;20279;-90
2020/12/12 08:30:18;;;;;;;;;;;;;;;-2.33;71.07;100438.16;1667110;85;20585;-89
2020/12/12 08:32:48;;;;;;;;;;;;;;;-2.62;71.27;100401.80;1662053;86;20184;-89
2020/12/12 08:35:19;;;;;;;;;;;;;;;-2.29;71.15;100429.18;1666773;84;20323;-90
2020/12/12 08:37:52;;;;;;;;;;;;;;;-2.28;71.30;100429.56;1668705;84;20540;-92
2020/12/12 08:40:22;;;;;;;;;;;;;;;-2.26;71.08;100426.38;1665270;84;20212;-89
2020/12/12 08:43:01;;;;;;;;;;;;;;;-2.24;71.13;100424.94;1660504;86;20213;-87
2020/12/12 08:45:28;;;;;;;;;;;;;;;-2.26;71.17;100427.68;1664617;85;20185;-89
2020/12/12 08:48:04;;;;;;;;;;;;;;;-2.23;71.07;100429.23;1645628;86;20208;-89
2020/12/12 08:50:56;;;;;;;;;;;;;;;-2.27;71.07;100430.39;1662056;85;20257;-88
2020/12/12 08:53:46;;;;;;;;;;;;;;;-2.28;70.91;100421.73;1669117;85;20204;-91
2020/12/12 08:56:24;;;;;;;;;;;;;;;-2.29;71.47;100426.57;1668499;85;20580;-88
2020/12/12 08:58:57;;;;;;;;;;;;;;;-2.28;71.61;100415.65;1658876;85;20275;-88
2020/12/12 09:04:40;;;;;;;22.13;14.07;;;;;;;-2.27;72.02;100416.03;1807629;79;22901;-88
2020/12/12 09:07:09;;;;;;;28.33;16.40;;;;;;;-2.33;72.37;100405.53;1756949;80;21068;-88
2020/12/12 09:09:38;;;;;;;27.47;17.20;;;;;;;-2.26;72.20;100407.23;1729636;80;21155;-87
2020/12/12 09:12:11;;;;;;;23.77;15.63;;;;;;;-2.25;72.16;100419.37;1746483;80;21176;-89
2020/12/12 09:14:43;;;;;;;24.57;13.20;;;;;;;-2.18;71.99;100414.93;1764479;80;21197;-85
2020/12/12 09:17:14;;;;;;;30.33;17.53;;;;;;;-2.24;72.00;100414.05;1758695;80;21602;-88
2020/12/12 09:19:42;;;;;;;24.60;14.93;;;;;;;-2.22;71.95;100409.55;1758398;80;21235;-87
2020/12/12 09:22:09;;;;;;;32.23;16.50;;;;;;;-2.21;72.21;100412.99;1754280;80;21132;-89
2020/12/12 09:24:36;;;;;;;25.93;16.93;;;;;;;-2.16;72.04;100413.05;1715593;81;21846;-89
2020/12/12 09:27:03;;;;;;;26.50;16.23;;;;;;;-2.13;71.98;100410.69;1714921;83;21204;-89
2020/12/12 09:29:30;;;;;;;;;;;;;;;-2.03;71.74;100397.85;1701127;83;21246;-87
2020/12/12 09:31:57;;;;;;;25.03;15.60;;;;;;;-2.04;71.76;100394.38;1715147;83;20213;-88
2020/12/12 09:34:25;;;;;;;23.90;15.33;;;;;;;-2.05;71.95;100399.73;1715304;83;21215;-87
2020/12/12 09:36:52;;;;;;;;;;;;;;;-2.01;72.06;100397.28;1721019;80;21103;-89
2020/12/12 09:39:22;;;;;;;;;;;;;;;-1.98;71.83;100403.58;1710659;81;20281;-87
2020/12/12 09:41:48;;;;;;;20.17;12.63;;;;;;;-2.00;71.14;100395.02;1720385;81;20199;-89
2020/12/12 09:44:19;;;;;;;25.13;14.17;;;;;;;-2.11;70.63;100392.30;1712139;83;21176;-89
2020/12/12 09:46:47;;;;;;;19.20;13.80;;;;;;;-2.16;70.11;100407.83;1677448;85;21182;-90
2020/12/12 09:49:14;;;;;;;26.50;15.17;;;;;;;-2.25;70.02;100389.34;1680391;85;21347;-89
2020/12/12 09:51:46;;;;;;;19.33;13.20;;;;;;;-2.29;70.13;100403.08;1679829;85;21201;-87
2020/12/12 09:54:14;;;;;;;19.70;14.77;;;;;;;-2.35;69.83;100389.14;1675884;85;21207;-89
2020/12/12 09:56:48;;;;;;;25.20;14.47;;;;;;;-2.40;70.09;100382.91;1673743;85;21195;-89
2020/12/12 09:59:19;;;;;;;25.50;15.70;;;;;;;-2.41;70.04;100383.86;1674244;85;21168;-89
2020/12/12 10:01:49;;;;;;;23.10;15.50;;;;;;;-2.40;70.50;100382.08;1670591;86;21208;-86
2020/12/12 10:04:16;;;;;;;21.50;14.97;;;;;;;-2.42;70.69;100378.73;1663118;85;21208;-90
2020/12/12 10:06:43;;;;;;;;;;;;;;;-2.39;70.73;100372.02;1678120;83;21238;-89
2020/12/12 10:09:09;;;;;;;19.73;13.27;;;;;;;-2.37;70.65;100374.05;1669871;85;20201;-89
2020/12/12 10:11:37;;;;;;;19.87;13.90;;;;;;;-2.43;70.78;100361.39;1662848;85;21401;-90
2020/12/12 10:14:07;;;;;;;23.50;13.53;;;;;;;-2.42;70.88;100370.42;1666152;85;21226;-88
2020/12/12 10:16:37;;;;;;;19.93;15.00;;;;;;;-2.44;70.81;100361.04;1658715;85;21300;-89
2020/12/12 10:19:07;;;;;;;23.40;15.63;;;;;;;-2.43;71.08;100370.08;1647312;83;21741;-88
2020/12/12 10:21:37;;;;;;;28.37;15.77;;;;;;;-2.38;71.04;100351.48;1627560;86;21259;-89
2020/12/12 10:24:04;;;;;;;27.80;15.47;;;;;;;-2.38;70.91;100352.30;1691223;83;21225;-90
2020/12/12 10:26:34;;;;;;;22.53;16.17;;;;;;;-2.34;70.97;100346.41;1693828;83;21195;-90
2020/12/12 10:29:01;;;;;;;26.67;14.80;;;;;;;-2.32;71.01;100341.91;1690503;83;21206;-86
2020/12/12 10:31:28;;;;;;;22.63;14.93;;;;;;;-2.32;70.57;100354.97;1681353;83;21206;-89
2020/12/12 10:33:55;;;;;;;20.50;12.70;;;;;;;-2.30;70.35;100338.72;1696105;83;21216;-90
2020/12/12 10:36:26;;;;;;;21.43;13.67;;;;;;;-2.59;70.29;100290.66;1687320;83;21082;-87
2020/12/12 10:38:57;;;;;;;22.03;15.20;;;;;;;-2.29;70.41;100342.19;1691638;83;21176;-89
2020/12/12 10:41:50;;;;;;;24.90;14.10;;;;;;;-2.19;70.55;100338.82;1789635;79;23129;-89
2020/12/12 10:44:19;;;;;;;21.17;13.00;;;;;;;-2.47;70.09;100315.56;1746573;81;21160;-88
2020/12/12 10:46:51;;;;;;;25.33;14.23;;;;;;;-2.24;69.23;100331.80;1757345;81;21140;-90
2020/12/12 10:49:29;;;;;;;22.25;13.78;;;;;;;-2.27;69.78;100342.44;1716883;80;21187;-89
2020/12/12 10:51:57;;;;;;;25.50;15.97;;;;;;;-2.28;69.73;100342.09;1751501;81;21196;-90
2020/12/12 10:54:40;;;;;;;23.70;14.03;;;;;;;-2.27;69.94;100325.95;1809257;77;22921;-89
2020/12/12 10:57:09;;;;;;;27.10;17.30;;;;;;;-2.35;70.51;100336.92;1822490;76;21251;-89
2020/12/12 10:59:37;;;;;;;17.83;12.50;;;;;;;-2.35;70.31;100327.78;1818762;76;21175;-91
2020/12/12 11:02:05;;;;;;;19.67;13.67;;;;;;;-2.39;70.67;100332.86;1830444;76;21527;-91
2020/12/12 11:04:37;;;;;;;17.00;12.13;;;;;;;-2.35;70.45;100326.00;1793683;80;21144;-90
2020/12/12 11:07:11;;;;;;;30.13;15.90;;;;;;;-2.38;70.73;100326.68;1702027;81;21022;-89
2020/12/12 11:09:43;;;;;;;23.90;15.70;;;;;;;-2.39;70.87;100330.25;1719794;81;21337;-90
2020/12/12 11:12:14;;;;;;;23.30;14.17;;;;;;;-2.34;70.78;100332.05;1694247;81;21609;-88
2020/12/12 11:14:47;;;;;;;19.40;14.30;;;;;;;-2.32;70.49;100331.47;1730580;81;21165;-90
2020/12/12 11:17:15;;;;;;;24.67;14.70;;;;;;;-2.31;70.27;100328.41;1733515;81;21726;-89
2020/12/12 11:19:44;;;;;;;25.47;15.40;;;;;;;-2.36;70.46;100328.23;1731177;81;21554;-91
2020/12/12 11:22:29;;;;;;;19.20;12.77;;;;;;;-2.32;70.18;100328.86;1734422;81;21159;-91
2020/12/12 11:24:56;;;;;;;24.23;13.83;;;;;;;-2.31;69.90;100321.41;1715447;82;21187;-90
2020/12/12 11:27:25;;;;;;;20.57;11.03;;;;;;;-2.33;70.06;100325.91;1724267;81;21822;-88
2020/12/12 11:29:55;;;;;;;21.90;14.60;;;;;;;-2.35;70.18;100330.39;1726141;82;21148;-88
2020/12/12 11:32:36;;;;;;;26.60;16.17;;;;;;;-2.50;70.91;100332.75;1723672;82;21287;-88
2020/12/12 11:38:25;;;;;;;19.33;12.10;;;;;;;-2.39;70.86;100345.91;1788857;78;22997;-89
2020/12/12 11:41:12;;;;;;;21.57;13.83;;;;;;;-2.43;70.67;100347.03;1762861;80;21183;-90
2020/12/12 11:46:15;;;;;;;23.37;15.60;;;;;;;-2.40;70.16;100350.75;1741547;79;21142;-89
2020/12/12 11:48:29;;;;;;;25.23;15.63;;;;;;;-2.43;70.21;100344.42;1754320;79;21199;-87
2020/12/12 11:50:59;;;;;;;24.20;14.70;;;;;;;-2.42;70.55;100343.50;1746948;80;21190;-88
2020/12/12 11:53:28;;;;;;;27.63;15.93;;;;;;;-2.45;70.46;100343.69;1743967;80;21124;-89
2020/12/12 11:56:00;;;;;;;22.87;15.00;;;;;;;-2.42;70.79;100323.92;1732510;80;21198;-88
2020/12/12 11:58:27;;;;;;;23.97;14.40;;;;;;;-2.68;70.89;100280.85;1728840;80;21211;-90
2020/12/12 12:00:56;;;;;;;24.90;15.43;;;;;;;-2.44;71.10;100327.11;1725756;80;21186;-89
2020/12/12 12:03:23;;;;;;;22.80;14.63;;;;;;;-2.42;70.83;100323.92;1751171;80;21202;-88
2020/12/12 12:05:52;;;;;;;18.73;13.17;;;;;;;-2.45;70.77;100331.50;1728003;80;21147;-87
2020/12/12 12:09:00;;;;;;;;;;;;;;;;;;;;;
2020/12/12 12:11:29;;;;;;;21.33;12.50;;;;;;;-2.31;70.25;100335.77;1759712;79;23017;-85
2020/12/12 12:13:49;;;;;;;22.67;13.27;;;;;;;-2.39;69.50;100331.55;1738594;82;21192;-88
2020/12/12 12:16:20;;;;;;;19.00;12.87;;;;;;;-2.44;69.66;100328.41;1743207;81;21327;-89
2020/12/12 12:18:48;;;;;;;23.83;14.50;;;;;;;-2.49;69.93;100325.27;1729003;82;21133;-85
2020/12/12 12:21:16;;;;;;;25.63;15.07;;;;;;;-2.52;70.51;100332.85;1728188;79;21171;-88
2020/12/12 12:30:49;;;;;;;25.62;13.45;;;;;;;-2.40;70.18;100341.14;1725905;79;21039;-88
2020/12/12 12:33:18;;;;;;;25.00;13.80;;;;;;;-2.36;69.96;100336.54;1716685;83;21299;-87
2020/12/12 12:35:46;;;;;;;22.47;13.27;;;;;;;-2.36;69.98;100325.63;1687779;81;21096;-92
2020/12/12 12:38:16;;;;;;;22.73;15.93;;;;;;;-2.36;69.48;100332.63;1647829;86;21172;-91
2020/12/12 12:40:52;;;;;;;20.57;14.97;;;;;;;-2.37;69.71;100323.97;1661727;84;21178;-92
2020/12/12 12:43:20;;;;;;;23.33;14.63;;;;;;;-2.39;69.99;100330.25;1652315;84;21209;-91